Terminal Aerodrome Forecast
Issued by NWS Bismarck, ND

Home | Current Version | Previous Version | Graphics & Text | Print | Product List | Glossary On
Versions: 1 2 3 4 5 6 7 8 9 10 11 12 13 14 15 16 17 18 19 20 21 22 23 24
000
FTUS43 KBIS 271700
TAFISN
TAF
KISN 271740Z 2718/2818 27018G26KT 6SM -SHRA BKN030
     FM280000 30021G31KT 4SM -SNRA OVC020
     FM280300 31020G30KT P6SM OVC015
     FM280600 31015KT P6SM OVC007=

USA.gov is the U.S. government's official web portal to all federal, state and local government web resources and services.